Latest Weather Observations for Innisfail Aero

IDQ60801

Issued at 3:42 pm EST Wednesday 20 June 2018 (issued every 10 minutes, with the page automatically refreshed every 10 minutes)

About weather observations | Map of weather stations | Latest weather observations for QLD | Other Formats
Station Details ID: 032197 Name: INNISFAIL AERODROME Lat: -17.56 Lon: 146.01 Height: 11.84 m
Data from the previous 72 hours. | See also: Recent months for locations in Queensland
Date/Time
EST
Temp
°C
App
Temp
°C
Dew
Point
°C
Rel
Hum
%
Delta-T
°C
Wind Press
QNH
hPa
Press
MSL
hPa
Rain since
9am
mm
Dir  Spd
km/h
Gust
km/h
Spd
kts
Gust
kts
20/03:30pm 21.5 18.3 11.2 52 5.7 SSE 19 26 10 14 1019.3 1019.3 0.0
20/03:00pm 21.8 18.4 11.2 51 5.9 SE 20 26 11 14 1019.3 1019.3 0.0
20/02:30pm 22.5 21.1 13.3 56 5.3 SE 13 20 7 11 1019.2 1019.2 0.0
20/02:00pm 20.8 18.0 12.5 59 4.7 SSE 19 30 10 16 1019.5 1019.5 0.0
20/01:30pm 21.6 18.6 12.7 57 5.1 SE 20 26 11 14 1019.8 1019.8 0.0
20/01:00pm 21.4 18.6 13.3 60 4.6 SE 20 30 11 16 1020.1 1020.1 0.0
20/12:30pm 22.0 19.5 14.1 61 4.6 SE 20 30 11 16 1020.5 1020.5 0.0
20/12:00pm 21.3 19.3 12.7 58 4.9 SSE 15 22 8 12 1020.9 1020.9 0.0
20/11:30am 22.1 19.8 14.2 61 4.6 SSE 19 30 10 16 1021.0 1021.0 0.0
20/11:00am 21.0 18.5 12.2 57 4.9 SSE 17 30 9 16 1021.5 1021.5 0.0
20/10:30am 21.6 19.5 13.5 60 4.7 S 17 28 9 15 1021.7 1021.7 0.0
20/10:00am 20.2 18.7 13.2 64 4.0 S 13 20 7 11 1021.9 1021.9 0.0
20/09:30am 18.6 20.0 14.5 77 2.4 CALM 0 0 0 0 1022.0 1022.0 0.0
20/09:00am 15.7 16.4 12.3 80 1.9 CALM 0 0 0 0 1022.1 1022.1 0.0
20/08:30am 13.5 13.9 11.4 87 1.1 CALM 0 0 0 0 1022.0 1022.0 0.0
20/08:00am 11.1 11.5 11.1 100 0.0 CALM 0 0 0 0 1021.7 1021.7 0.0
20/07:30am 8.9 8.7 8.9 100 0.0 CALM 0 0 0 0 1021.5 1021.5 0.0
20/07:00am 8.0 7.5 8.0 100 0.0 CALM 0 0 0 0 1021.3 1021.3 0.0
20/06:30am 6.8 4.9 6.8 100 0.0 N 6 7 3 4 1021.1 1021.1 0.0
20/06:00am 7.1 5.6 7.0 99 0.0 W 4 7 2 4 1020.8 1020.8 0.0
20/05:30am 8.2 7.0 8.2 100 0.0 W 4 9 2 5 1020.6 1020.6 0.0
20/05:00am 7.9 7.0 7.9 100 0.0 N 2 6 1 3 1020.4 1020.4 0.0
20/04:30am 7.2 5.4 7.2 100 0.0 N 6 9 3 5 1020.3 1020.3 0.0
20/04:00am 6.6 5.1 6.6 100 0.0 WNW 4 7 2 4 1020.2 1020.2 0.0
20/03:30am 8.0 7.5 8.0 100 0.0 CALM 0 0 0 0 1020.2 1020.2 0.0
20/03:00am 7.8 7.3 7.8 100 0.0 CALM 0 0 0 0 1020.4 1020.4 0.0
20/02:30am 6.8 4.7 6.7 99 0.0 N 7 7 4 4 1020.4 1020.4 0.0
20/02:00am 8.8 8.5 8.8 100 0.0 CALM 0 0 0 0 1020.6 1020.6 0.0
20/01:30am 8.3 7.9 8.3 100 0.0 CALM 0 0 0 0 1020.7 1020.7 0.0
20/01:00am 7.8 6.1 7.7 99 0.0 NNE 6 7 3 4 1020.8 1020.8 0.0
20/12:30am 8.1 6.4 7.7 97 0.2 NW 6 9 3 5 1021.0 1021.0 0.0
20/12:00am 9.7 9.3 9.7 100 0.0 SW 2 7 1 4 1021.2 1021.2 0.0
 
Date/Time
EST
Temp
°C
App
Temp
°C
Dew
Point
°C
Rel
Hum
%
Delta-T
°C
Wind Press
QNH
hPa
Press
MSL
hPa
Rain since
9am
mm
Dir  Spd
km/h
Gust
km/h
Spd
kts
Gust
kts
19/11:30pm 8.3 7.8 7.9 97 0.2 CALM 0 0 0 0 1021.4 1021.4 0.0
19/11:00pm 9.5 9.0 9.5 100 0.0 SSE 2 6 1 3 1021.7 1021.7 0.0
19/10:30pm 9.0 7.6 8.7 98 0.1 NNE 6 6 3 3 1021.9 1021.9 0.0
19/10:00pm 9.2 9.0 8.9 98 0.1 CALM 0 0 0 0 1021.9 1021.9 0.0
19/09:30pm 8.9 7.3 8.1 95 0.4 WSW 6 9 3 5 1022.1 1022.1 0.0
19/09:00pm 9.5 8.7 8.3 92 0.6 SW 2 9 1 5 1021.9 1021.9 0.0
19/08:30pm 10.1 9.6 7.9 86 1.1 CALM 0 0 0 0 1021.6 1021.6 0.0
19/08:00pm 11.7 11.6 9.4 86 1.2 CALM 0 0 0 0 1021.4 1021.4 0.0
19/07:30pm 12.3 11.7 9.1 81 1.6 W 2 6 1 3 1021.1 1021.1 0.0
19/07:00pm 13.5 12.3 9.4 76 2.1 SSW 6 7 3 4 1020.7 1020.7 0.0
19/06:30pm 14.8 13.0 9.4 70 2.8 SW 9 9 5 5 1020.4 1020.4 0.0
19/06:00pm 15.4 13.2 9.5 68 3.0 SSE 11 17 6 9 1020.1 1020.1 0.0
19/05:30pm 17.4 14.7 8.8 57 4.4 SSE 13 17 7 9 1019.8 1019.8 0.0
19/05:00pm 18.9 14.8 8.8 52 5.2 SSE 20 26 11 14 1019.5 1019.5 0.0
19/04:30pm 19.8 15.4 8.8 49 5.8 SE 22 28 12 15 1019.3 1019.3 0.0
19/04:00pm 20.5 15.9 8.2 45 6.4 SE 22 33 12 18 1019.2 1019.2 0.0
19/03:30pm 20.7 15.4 8.4 45 6.4 SE 26 37 14 20 1019.1 1019.1 0.0
19/03:00pm 21.1 16.5 9.7 48 6.1 SSE 24 33 13 18 1019.2 1019.2 0.0
19/02:30pm 21.2 16.4 8.8 45 6.6 SE 24 32 13 17 1019.1 1019.1 0.0
19/02:00pm 20.8 15.9 8.4 45 6.5 SE 24 35 13 19 1019.3 1019.3 0.0
19/01:30pm 21.2 16.8 9.1 46 6.4 SE 22 32 12 17 1019.6 1019.6 0.0
19/01:00pm 21.4 16.3 9.3 46 6.4 SE 26 35 14 19 1020.0 1020.0 0.0
19/12:30pm 21.3 15.8 9.2 46 6.4 SSE 28 33 15 18 1020.5 1020.5 0.0
19/12:00pm 21.7 17.1 9.6 46 6.5 SSE 24 35 13 19 1021.1 1021.1 0.0
19/11:30am 21.7 16.5 8.9 44 6.8 S 26 37 14 20 1021.5 1021.5 0.0
19/11:00am 21.3 16.4 8.6 44 6.7 S 24 35 13 19 1022.0 1022.0 0.0
19/10:30am 20.8 15.5 8.4 45 6.5 S 26 35 14 19 1022.2 1022.2 0.0
19/10:00am 20.4 16.2 8.4 46 6.2 S 20 30 11 16 1022.2 1022.2 0.0
19/09:30am 19.7 14.8 7.1 44 6.4 S 22 30 12 16 1022.3 1022.3 0.0
19/09:00am 18.1 16.8 11.2 64 3.7 SW 9 15 5 8 1022.4 1022.4 0.0
19/08:30am 16.2 15.4 10.9 71 2.8 WSW 6 13 3 7 1022.1 1022.1 0.0
19/08:00am 13.1 13.7 12.0 93 0.6 CALM 0 0 0 0 1021.8 1021.8 0.0
19/07:30am 11.2 11.2 11.0 99 0.1 N 2 6 1 3 1021.4 1021.4 0.0
19/07:00am 10.3 9.1 10.3 100 0.0 N 7 9 4 5 1021.1 1021.1 0.0
19/06:30am 9.8 8.7 9.8 100 0.0 N 6 7 3 4 1020.8 1020.8 0.0
19/06:00am 9.5 9.4 9.4 99 0.0 CALM 0 0 0 0 1020.6 1020.6 0.0
19/05:30am 9.5 8.6 9.4 99 0.0 WSW 4 7 2 4 1020.3 1020.3 0.0
19/05:00am 10.6 9.7 10.6 100 0.0 SW 6 7 3 4 1020.0 1020.0 0.0
19/04:30am 10.4 10.6 10.4 100 0.0 CALM 0 6 0 3 1020.0 1020.0 0.0
19/04:00am 10.6 9.5 10.6 100 0.0 N 7 9 4 5 1019.9 1019.9 0.0
19/03:30am 11.0 10.0 11.0 100 0.0 NNE 7 9 4 5 1019.7 1019.7 0.0
19/03:00am 10.5 9.6 10.5 100 0.0 N 6 9 3 5 1019.6 1019.6 0.0
19/02:30am 10.3 9.1 9.7 96 0.3 W 6 9 3 5 1019.7 1019.7 0.0
19/02:00am 11.5 11.9 11.3 99 0.1 CALM 0 0 0 0 1019.8 1019.8 0.0
19/01:30am 11.3 11.1 10.5 95 0.4 SW 2 7 1 4 1020.0 1020.0 0.0
19/01:00am 13.0 12.0 12.2 95 0.4 SW 9 13 5 7 1020.0 1020.0 0.0
19/12:30am 12.7 11.4 12.4 98 0.2 SW 11 11 6 6 1020.0 1020.0 0.0
19/12:00am 12.1 12.6 11.6 97 0.3 CALM 0 6 0 3 1020.1 1020.1 0.0
 
Date/Time
EST
Temp
°C
App
Temp
°C
Dew
Point
°C
Rel
Hum
%
Delta-T
°C
Wind Press
QNH
hPa
Press
MSL
hPa
Rain since
9am
mm
Dir  Spd
km/h
Gust
km/h
Spd
kts
Gust
kts
18/11:30pm 12.1 11.8 11.3 95 0.4 WSW 4 7 2 4 1020.0 1020.0 0.0
18/11:00pm 13.0 12.4 12.4 96 0.3 SW 7 9 4 5 1020.2 1020.2 0.0
18/10:30pm 13.0 12.5 12.2 95 0.4 SSW 6 7 3 4 1020.5 1020.5 0.0
18/10:00pm 13.0 13.6 11.9 93 0.6 CALM 0 0 0 0 1020.6 1020.6 0.0
18/09:30pm 14.3 13.8 12.5 89 1.0 WSW 7 11 4 6 1020.4 1020.4 0.0
18/09:00pm 14.1 13.2 12.7 91 0.8 SW 9 11 5 6 1020.2 1020.2 0.0
18/08:30pm 14.2 13.7 12.2 88 1.1 SSW 6 7 3 4 1020.0 1020.0 0.0
18/08:00pm 14.8 14.4 12.5 86 1.3 WNW 6 7 3 4 1019.7 1019.7 0.0
18/07:30pm 15.2 14.6 12.3 83 1.6 NW 7 9 4 5 1019.3 1019.3 0.0
18/07:00pm 15.1 14.5 12.2 83 1.6 WNW 7 9 4 5 1019.0 1019.0 0.0
18/06:30pm 17.5 16.3 11.5 68 3.3 SW 9 9 5 5 1018.7 1018.7 0.0
18/06:00pm 18.2 17.5 11.3 64 3.7 S 6 7 3 4 1018.3 1018.3 0.0
18/05:30pm 19.3 17.6 11.1 59 4.5 SSE 11 13 6 7 1018.0 1018.0 0.0
18/05:00pm 21.2 17.5 9.4 47 6.3 SE 19 24 10 13 1017.6 1017.6 0.0
18/04:30pm 21.7 17.5 9.6 46 6.5 SE 22 28 12 15 1017.2 1017.2 0.0
18/04:00pm 22.1 17.9 9.9 46 6.6 SSE 22 28 12 15 1017.1 1017.1 0.0
18/03:30pm 22.4 18.2 11.2 49 6.2 SSE 24 30 13 16 1016.9 1016.9 0.0
18/03:00pm 23.1 19.7 11.2 47 6.6 SE 20 32 11 17 1016.9 1016.9 0.0
18/02:30pm 23.6 19.3 9.2 40 7.8 SE 22 33 12 18 1017.2 1017.2 0.0
18/02:00pm 23.6 17.7 7.3 35 8.5 SSE 28 35 15 19 1017.4 1017.4 0.0
18/01:30pm 23.4 18.6 8.7 39 7.9 SE 24 30 13 16 1017.8 1017.8 0.0
18/01:00pm 23.7 19.4 10.7 44 7.2 SSE 24 35 13 19 1018.2 1018.2 0.0
18/12:30pm 23.2 18.9 11.9 49 6.4 SSE 26 35 14 19 1018.6 1018.6 0.0
18/12:00pm 23.0 18.5 10.1 44 7.0 SSE 24 32 13 17 1019.2 1019.2 0.0
18/11:30am 23.1 18.7 10.5 45 6.9 SSE 24 32 13 17 1019.6 1019.6 0.0
18/11:00am 22.8 18.3 9.9 44 7.0 SSE 24 32 13 17 1019.9 1019.9 0.0
18/10:30am 22.6 18.8 9.7 44 7.0 SE 20 32 11 17 1020.2 1020.2 0.0
18/10:00am 21.9 20.1 12.2 54 5.5 SSE 13 22 7 12 1020.3 1020.3 0.0
18/09:30am 20.6 20.5 13.3 63 4.2 S 6 11 3 6 1020.3 1020.3 0.0
18/09:00am 19.7 21.2 14.7 73 2.9 CALM 0 4 0 2 1020.4 1020.4 0.0
18/08:30am 18.6 19.7 14.5 77 2.4 SSW 2 7 1 4 1020.2 1020.2 0.0
18/08:00am 17.3 19.0 15.1 87 1.3 CALM 0 0 0 0 1019.8 1019.8 0.0
18/07:30am 16.0 17.8 15.4 96 0.3 CALM 0 0 0 0 1019.6 1019.6 0.0
18/07:00am 15.3 16.7 14.5 95 0.5 CALM 0 0 0 0 1019.3 1019.3 0.0
18/06:30am 15.4 16.5 14.6 95 0.5 NNE 2 6 1 3 1019.0 1019.0 0.0
18/06:00am 15.3 16.8 14.7 96 0.3 CALM 0 0 0 0 1018.6 1018.6 0.0
18/05:30am 15.4 17.0 14.8 96 0.3 CALM 0 0 0 0 1018.5 1018.5 0.0
18/05:00am 15.5 15.9 14.7 95 0.5 W 6 6 3 3 1018.5 1018.5 0.0
18/04:30am 15.7 15.9 14.6 93 0.6 SW 7 9 4 5 1018.3 1018.3 0.0
18/04:00am 15.0 16.0 14.2 95 0.5 SSW 2 7 1 4 1018.2 1018.2 0.0
18/03:30am 15.2 15.5 14.4 95 0.5 SSW 6 7 3 4 1018.1 1018.1 0.0
18/03:00am 15.4 16.8 14.4 94 0.6 CALM 0 0 0 0 1018.2 1018.2 0.0
18/02:30am 16.0 17.6 15.0 94 0.6 CALM 0 0 0 0 1018.2 1018.2 0.0
18/02:00am 16.6 16.9 15.1 91 0.9 SW 7 9 4 5 1018.5 1018.5 0.0
18/01:30am 16.6 17.5 15.1 91 0.9 SSW 4 6 2 3 1018.8 1018.8 0.0
18/01:00am 16.9 18.6 15.2 90 1.0 CALM 0 6 0 3 1019.1 1019.1 0.0
18/12:30am 17.1 17.2 15.6 91 0.9 SW 9 11 5 6 1019.3 1019.3 0.0
18/12:00am 16.7 18.7 15.9 95 0.5 CALM 0 0 0 0 1019.5 1019.5 0.0
 
Date/Time
EST
Temp
°C
App
Temp
°C
Dew
Point
°C
Rel
Hum
%
Delta-T
°C
Wind Press
QNH
hPa
Press
MSL
hPa
Rain since
9am
mm
Dir  Spd
km/h
Gust
km/h
Spd
kts
Gust
kts
17/11:30pm 16.5 18.1 15.9 96 0.4 N 2 6 1 3 1019.7 1019.7 0.0
17/11:00pm 16.7 18.5 15.4 92 0.8 CALM 0 0 0 0 1019.9 1019.9 0.0
17/10:30pm 16.9 18.7 15.4 91 0.9 CALM 0 0 0 0 1020.1 1020.1 0.0
17/10:00pm 17.1 17.8 15.6 91 0.9 WSW 6 9 3 5 1020.2 1020.2 0.0
17/09:30pm 17.4 17.7 15.0 86 1.4 SW 7 9 4 5 1020.1 1020.1 0.0
17/09:00pm 17.9 17.4 15.0 83 1.7 SW 11 13 6 7 1020.0 1020.0 0.0
17/08:30pm 17.6 17.5 15.0 85 1.5 SW 9 11 5 6 1019.8 1019.8 0.0
17/08:00pm 18.4 18.6 14.7 79 2.1 SW 7 9 4 5 1019.6 1019.6 0.0
17/07:30pm 19.0 18.9 14.9 77 2.4 SW 9 15 5 8 1019.3 1019.3 0.0
17/07:00pm 19.1 20.4 15.2 78 2.3 W 2 9 1 5 1019.3 1019.3 0.0
17/06:30pm 18.9 20.5 14.8 77 2.4 CALM 0 0 0 0 1019.0 1019.0 0.0
17/06:00pm 19.7 20.4 13.4 67 3.6 SE 2 6 1 3 1018.8 1018.8 0.0
17/05:30pm 20.2 19.6 13.6 66 3.8 SE 9 11 5 6 1018.5 1018.5 0.0
17/05:00pm 21.8 20.4 13.4 59 4.8 SE 13 17 7 9 1017.9 1017.9 0.0
17/04:30pm 22.6 20.2 12.5 53 5.7 SE 17 24 9 13 1017.8 1017.8 0.0
17/04:00pm 23.5 19.8 11.5 47 6.7 SE 22 32 12 17 1017.4 1017.4 0.0

Other Formats:

Comma delimited format used in spreadsheet applications
http://www.bom.gov.au/fwo/IDQ60801/IDQ60801.94280.axf

JavaScript Object Notation format (JSON) in row-major order
http://www.bom.gov.au/fwo/IDQ60801/IDQ60801.94280.json